createdAt,value
2022-11-29T00:00:09.485Z,1.52
2022-11-29T00:04:12.620Z,1.58
2022-11-29T00:08:16.621Z,1.55
2022-11-29T00:12:19.300Z,1.51
2022-11-29T00:16:21.973Z,1.54
2022-11-29T00:20:24.737Z,1.53
2022-11-29T00:24:31.510Z,1.50
2022-11-29T00:28:34.828Z,1.51
2022-11-29T00:32:37.490Z,1.55
2022-11-29T00:36:41.034Z,1.51
2022-11-29T00:40:45.080Z,1.49
2022-11-29T00:44:48.034Z,1.49
2022-11-29T00:48:50.760Z,1.50
2022-11-29T00:52:53.412Z,1.52
2022-11-29T00:56:57.601Z,1.52
2022-11-29T01:01:00.314Z,1.52
2022-11-29T01:05:03.042Z,1.50
2022-11-29T01:09:05.855Z,1.49
2022-11-29T01:13:10.480Z,1.50
2022-11-29T01:17:13.138Z,1.52
2022-11-29T01:21:17.181Z,1.52
2022-11-29T01:25:20.244Z,1.53
2022-11-29T01:29:24.624Z,1.52
2022-11-29T01:33:27.306Z,1.50
2022-11-29T01:37:30.529Z,1.48
2022-11-29T01:41:35.493Z,1.54
2022-11-29T01:45:40.379Z,1.52
2022-11-29T01:49:46.822Z,1.48
2022-11-29T01:53:49.771Z,1.50
2022-11-29T01:57:53.087Z,1.52
2022-11-29T02:02:01.335Z,1.49
2022-11-29T02:06:05.581Z,1.52
2022-11-29T02:10:09.561Z,1.50
2022-11-29T02:14:28.291Z,1.50
2022-11-29T02:18:46.197Z,1.52
2022-11-29T02:22:57.420Z,1.49
2022-11-29T02:27:18.003Z,1.56
2022-11-29T02:31:53.532Z,1.52
2022-11-29T02:40:44.350Z,1.53
2022-11-29T02:45:04.138Z,1.57
2022-11-29T02:49:16.674Z,1.57
2022-11-29T02:53:27.021Z,1.55
2022-11-29T02:57:42.204Z,1.56
2022-11-29T03:01:53.323Z,1.59
2022-11-29T03:06:04.431Z,1.61
2022-11-29T03:10:15.225Z,1.62
2022-11-29T03:14:26.065Z,1.61
2022-11-29T03:18:36.167Z,1.61
2022-11-29T03:22:47.984Z,1.61
2022-11-29T03:26:56.173Z,1.63
2022-11-29T03:31:09.678Z,1.68
2022-11-29T03:35:19.791Z,1.67
2022-11-29T03:39:29.298Z,1.63
2022-11-29T03:43:41.667Z,1.66
2022-11-29T03:47:55.794Z,1.67
2022-11-29T03:52:07.109Z,1.68
2022-11-29T03:56:27.071Z,1.67
2022-11-29T04:00:37.180Z,1.66
2022-11-29T04:05:24.793Z,1.66
2022-11-29T04:09:41.361Z,1.66
2022-11-29T04:14:14.897Z,1.66
2022-11-29T04:18:46.589Z,1.67
2022-11-29T04:23:21.265Z,1.67
2022-11-29T04:27:41.586Z,1.66
2022-11-29T04:32:04.425Z,1.67
2022-11-29T04:36:35.091Z,1.70
2022-11-29T04:40:56.926Z,1.70
2022-11-29T04:45:36.401Z,1.71
2022-11-29T04:49:55.978Z,1.72
2022-11-29T04:54:04.085Z,1.70
2022-11-29T04:58:17.099Z,1.69
2022-11-29T05:02:34.596Z,1.72
2022-11-29T05:06:45.357Z,1.72
2022-11-29T05:11:00.968Z,1.74
2022-11-29T05:15:29.718Z,1.71
2022-11-29T05:19:55.994Z,1.73
2022-11-29T05:24:11.884Z,1.72
2022-11-29T05:28:22.033Z,1.73
2022-11-29T05:32:32.584Z,1.72
2022-11-29T05:36:44.216Z,1.74
2022-11-29T05:41:02.583Z,1.77
2022-11-29T05:45:10.889Z,1.74
2022-11-29T05:49:23.340Z,1.76
2022-11-29T05:53:35.197Z,1.74
2022-11-29T05:57:44.702Z,1.77
2022-11-29T06:01:56.027Z,1.73
2022-11-29T06:06:03.132Z,1.74
2022-11-29T06:10:12.497Z,1.77
2022-11-29T06:14:31.174Z,1.75
2022-11-29T06:18:55.093Z,1.78
2022-11-29T06:23:24.103Z,1.76
2022-11-29T06:27:52.790Z,1.78
2022-11-29T06:32:04.239Z,1.83
2022-11-29T06:36:19.409Z,1.80
2022-11-29T06:40:22.628Z,1.76
2022-11-29T06:44:27.287Z,1.76
2022-11-29T06:48:36.482Z,1.77
2022-11-29T06:52:47.681Z,1.81
2022-11-29T06:56:56.772Z,1.82
2022-11-29T07:01:11.852Z,1.84
2022-11-29T07:05:22.499Z,1.83
2022-11-29T07:09:29.644Z,1.83
2022-11-29T07:13:32.937Z,1.87
2022-11-29T07:17:49.107Z,1.89
2022-11-29T07:22:00.824Z,1.94
2022-11-29T07:26:18.085Z,1.93
2022-11-29T07:30:22.428Z,1.95
2022-11-29T07:34:38.037Z,1.95
2022-11-29T07:38:55.700Z,1.96
2022-11-29T07:43:14.797Z,2.21
2022-11-29T07:47:17.670Z,2.74
2022-11-29T07:51:21.829Z,2.33
2022-11-29T07:55:26.037Z,2.14
2022-11-29T07:59:28.704Z,2.12
2022-11-29T08:03:33.018Z,2.09
2022-11-29T08:07:38.146Z,2.14
2022-11-29T08:11:41.230Z,2.14
2022-11-29T08:15:47.728Z,2.17
2022-11-29T08:19:50.357Z,2.21
2022-11-29T08:23:54.404Z,2.20
2022-11-29T08:27:57.379Z,2.24
2022-11-29T08:32:00.216Z,2.28
2022-11-29T08:36:06.307Z,2.33
2022-11-29T08:40:11.625Z,2.38
2022-11-29T08:44:14.337Z,2.68
2022-11-29T08:48:17.056Z,2.65
2022-11-29T08:52:37.305Z,2.65
2022-11-29T09:01:04.027Z,2.62
2022-11-29T09:05:08.496Z,2.58
2022-11-29T09:09:11.267Z,2.64
2022-11-29T09:13:15.445Z,2.65
2022-11-29T09:17:18.176Z,2.69
2022-11-29T09:21:21.506Z,2.71
2022-11-29T09:25:24.350Z,2.71
2022-11-29T09:29:28.345Z,2.75
2022-11-29T09:33:31.004Z,2.76
2022-11-29T09:37:35.048Z,2.76
2022-11-29T09:41:51.891Z,2.77
2022-11-29T09:46:01.928Z,2.76
2022-11-29T09:50:21.660Z,2.85
2022-11-29T09:54:37.583Z,2.85
2022-11-29T09:58:46.943Z,2.84
2022-11-29T10:02:55.549Z,2.88
2022-11-29T10:07:04.079Z,2.91
2022-11-29T10:11:17.026Z,2.96
2022-11-29T10:15:22.870Z,3.01
2022-11-29T10:19:33.291Z,3.03
2022-11-29T10:23:41.456Z,3.05
2022-11-29T10:27:44.156Z,3.00
2022-11-29T10:31:49.456Z,3.02
2022-11-29T10:35:57.844Z,3.13
2022-11-29T10:40:04.613Z,3.07
2022-11-29T10:44:07.494Z,3.01
2022-11-29T10:48:15.627Z,3.08
2022-11-29T10:52:21.871Z,3.11
2022-11-29T10:56:29.501Z,3.06
2022-11-29T11:00:32.226Z,3.15
2022-11-29T11:04:38.865Z,3.16
2022-11-29T11:08:45.961Z,3.20
2022-11-29T11:13:02.600Z,3.15
2022-11-29T11:17:25.948Z,3.22
2022-11-29T11:21:29.366Z,3.25
2022-11-29T11:25:35.694Z,3.29
2022-11-29T11:29:41.055Z,3.34
2022-11-29T11:33:45.700Z,3.34
2022-11-29T11:37:57.207Z,3.32
2022-11-29T11:42:20.928Z,3.36
2022-11-29T11:46:23.941Z,3.39
2022-11-29T11:50:30.347Z,3.55
2022-11-29T11:54:36.308Z,3.75
2022-11-29T11:58:48.907Z,3.72
2022-11-29T12:02:51.686Z,3.70
2022-11-29T12:06:57.548Z,3.61
2022-11-29T12:11:07.452Z,3.59
2022-11-29T12:15:19.750Z,3.56
2022-11-29T12:19:26.190Z,3.54
2022-11-29T12:23:36.400Z,3.55
2022-11-29T12:27:40.427Z,3.53
2022-11-29T12:31:58.858Z,3.54
2022-11-29T12:36:19.379Z,3.66
2022-11-29T12:40:30.112Z,3.70
2022-11-29T12:44:44.281Z,3.63
2022-11-29T12:48:56.049Z,3.74
2022-11-29T12:53:13.460Z,3.64
2022-11-29T12:57:21.386Z,3.67
2022-11-29T13:01:31.048Z,3.60
2022-11-29T13:05:50.511Z,3.65
2022-11-29T13:10:17.720Z,3.62
2022-11-29T13:14:42.475Z,3.56
2022-11-29T13:18:54.453Z,3.57
2022-11-29T13:23:06.520Z,3.59
2022-11-29T13:27:17.014Z,3.76
2022-11-29T13:31:22.393Z,3.83
2022-11-29T13:35:32.399Z,3.66
2022-11-29T13:39:49.006Z,3.69
2022-11-29T13:43:58.820Z,3.63
2022-11-29T13:48:03.365Z,3.66
2022-11-29T13:52:07.360Z,4.16
2022-11-29T13:56:27.096Z,5.07
2022-11-29T14:00:32.525Z,4.89
2022-11-29T14:04:38.620Z,5.46
2022-11-29T14:09:17.324Z,4.97
2022-11-29T14:13:15.673Z,4.56
2022-11-29T14:17:49.389Z,4.12
2022-11-29T14:22:23.076Z,3.92
2022-11-29T14:26:30.751Z,3.71
2022-11-29T14:30:47.332Z,3.61
2022-11-29T14:34:55.948Z,3.54
2022-11-29T14:39:12.712Z,3.45
2022-11-29T14:43:21.844Z,3.41
2022-11-29T14:47:31.751Z,3.38
2022-11-29T14:51:35.546Z,3.32
2022-11-29T14:55:39.809Z,3.36
2022-11-29T14:59:50.028Z,3.40
2022-11-29T15:03:55.349Z,3.42
2022-11-29T15:08:07.589Z,3.48
2022-11-29T15:12:15.802Z,3.44
2022-11-29T15:16:31.890Z,3.45
2022-11-29T15:21:00.134Z,3.48
2022-11-29T15:25:11.448Z,3.43
2022-11-29T15:29:15.329Z,3.40
2022-11-29T15:33:23.915Z,3.36
2022-11-29T15:37:44.537Z,3.40
2022-11-29T15:41:47.226Z,3.44
2022-11-29T15:45:51.220Z,3.74
2022-11-29T15:49:55.347Z,4.28
2022-11-29T15:54:12.852Z,3.83
2022-11-29T15:58:17.693Z,3.71
2022-11-29T16:02:23.030Z,3.67
2022-11-29T16:06:30.171Z,3.63
2022-11-29T16:10:37.269Z,3.58
2022-11-29T16:14:50.192Z,3.57
2022-11-29T16:18:52.855Z,3.52
2022-11-29T16:23:11.253Z,3.49
2022-11-29T16:27:15.821Z,3.49
2022-11-29T16:31:19.339Z,3.48
2022-11-29T16:35:25.999Z,3.52
2022-11-29T16:39:28.831Z,3.50
2022-11-29T16:43:53.587Z,3.53
2022-11-29T16:47:58.850Z,3.48
2022-11-29T16:52:02.286Z,3.49
2022-11-29T16:56:06.053Z,3.49
2022-11-29T17:00:25.514Z,3.48
2022-11-29T17:04:28.111Z,3.49
2022-11-29T17:08:31.636Z,3.50
2022-11-29T17:12:34.472Z,3.61
2022-11-29T17:16:38.508Z,3.71
2022-11-29T17:20:41.243Z,4.03
2022-11-29T17:24:48.021Z,4.04
2022-11-29T17:28:52.820Z,3.93
2022-11-29T17:32:56.897Z,3.85
2022-11-29T17:36:59.571Z,3.79
2022-11-29T17:41:07.869Z,3.72
2022-11-29T17:45:11.298Z,3.61
2022-11-29T17:49:15.420Z,3.56
2022-11-29T17:53:18.175Z,3.53
2022-11-29T17:57:20.853Z,3.62
2022-11-29T18:01:25.850Z,3.62
2022-11-29T18:05:34.582Z,3.77
2022-11-29T18:09:37.653Z,3.74
2022-11-29T18:13:40.529Z,3.62
2022-11-29T18:17:43.213Z,3.61
2022-11-29T18:21:47.329Z,4.01
2022-11-29T18:25:56.745Z,4.33
2022-11-29T18:29:59.548Z,4.43
2022-11-29T18:34:06.897Z,4.28
2022-11-29T18:38:15.975Z,4.10
2022-11-29T18:42:19.143Z,4.05
2022-11-29T18:46:22.174Z,4.00
2022-11-29T18:50:24.880Z,4.20
2022-11-29T18:54:30.930Z,4.12
2022-11-29T18:58:34.601Z,4.01
2022-11-29T19:02:37.261Z,4.05
2022-11-29T19:06:40.776Z,3.91
2022-11-29T19:10:44.877Z,3.79
2022-11-29T19:14:50.032Z,3.71
2022-11-29T19:18:55.322Z,3.68
2022-11-29T19:23:00.612Z,3.69
2022-11-29T19:27:05.268Z,3.60
2022-11-29T19:31:08.813Z,3.56
2022-11-29T19:35:11.547Z,3.54
2022-11-29T19:39:16.262Z,3.48
2022-11-29T19:43:20.236Z,3.46
2022-11-29T19:47:22.897Z,3.52
2022-11-29T19:51:26.678Z,3.52
2022-11-29T19:55:29.351Z,3.53
2022-11-29T19:59:33.569Z,3.53
2022-11-29T20:03:36.340Z,3.53
2022-11-29T20:07:39.576Z,3.55
2022-11-29T20:11:42.303Z,3.54
2022-11-29T20:15:46.469Z,3.54
2022-11-29T20:19:49.741Z,3.48
2022-11-29T20:23:56.453Z,3.48
2022-11-29T20:27:59.257Z,3.43
2022-11-29T20:32:03.787Z,3.41
2022-11-29T20:36:18.994Z,3.40
2022-11-29T20:40:25.663Z,3.38
2022-11-29T20:44:37.601Z,3.37
2022-11-29T20:48:42.179Z,3.43
2022-11-29T20:52:50.220Z,3.40
2022-11-29T20:56:52.920Z,3.41
2022-11-29T21:00:56.439Z,3.39
2022-11-29T21:05:00.526Z,3.41
2022-11-29T21:09:03.268Z,3.45
2022-11-29T21:13:09.017Z,3.45
2022-11-29T21:17:12.383Z,3.46
2022-11-29T21:21:23.610Z,3.45
2022-11-29T21:25:39.187Z,3.44
2022-11-29T21:29:42.493Z,3.43
2022-11-29T21:33:45.986Z,3.47
2022-11-29T21:38:00.651Z,3.45
2022-11-29T21:42:03.468Z,3.45
2022-11-29T21:46:06.343Z,3.40
2022-11-29T21:50:09.792Z,3.37
2022-11-29T21:54:13.812Z,3.39
2022-11-29T21:58:16.468Z,3.34
2022-11-29T22:02:19.267Z,3.35
2022-11-29T22:06:24.224Z,3.36
2022-11-29T22:10:28.660Z,3.35
2022-11-29T22:14:31.361Z,3.38
2022-11-29T22:18:34.101Z,3.38
2022-11-29T22:22:36.742Z,3.38
2022-11-29T22:26:41.215Z,3.36
2022-11-29T22:30:43.867Z,3.36
2022-11-29T22:34:46.670Z,3.41
2022-11-29T22:38:49.729Z,3.42
2022-11-29T22:42:54.280Z,3.37
2022-11-29T22:46:57.015Z,3.35
2022-11-29T22:51:04.606Z,3.38
2022-11-29T22:55:07.943Z,3.38
2022-11-29T22:59:12.350Z,3.32
2022-11-29T23:03:15.010Z,3.34
2022-11-29T23:07:17.739Z,3.32
2022-11-29T23:11:22.832Z,3.23
2022-11-29T23:15:26.843Z,3.24
2022-11-29T23:19:29.885Z,3.21
